Terminal Aerodrome Forecast
Issued by NWS

Home | Current Version | Previous Version | Text Only | Print | Product List | Glossary On
Versions: 1 2 3 4 5 6 7 8 9 10 11 12 13 14 15 16 17 18 19 20 21 22 23 24 25
000
FTUS45 KREV 192300
TAFTVL
TAF
KTVL 192340Z 2000/2024 19006KT 3SM -SHSN SCT020 BKN030
     FM200200 18006KT 2SM -SHSN BR SCT009 OVC020
     FM200700 19004KT P6SM BKN025 OVC080
     FM201700 19008G17KT 5SM -RASN SCT018 BKN030=

USA.gov is the U.S. government's official web portal to all federal, state and local government web resources and services.